LIBF/FOG METAR and TAF weather

Enter ICAO airport designator
Station Type Date Time Source
LIBF METAR 2019/12/06 14:50 UTC NOAA

LIBF 061450Z 11002KT 6000 SCT020 13/12 Q1022


Station Type Date Time Source
LIBF Decoded METAR 2019/12/06 14:50 UTC NOAA

Station name not available
Dec 06, 2019 - 09:50 AM EST / 2019.12.06 1450 UTC
Wind: from the ESE (110 degrees) at 2 MPH (2 KT):0
Visibility: 3 mile(s):0
Sky conditions: partly cloudy
Temperature: 55 F (13 C)
Dew Point: 53 F (12 C)
Relative Humidity: 93%
Pressure (altimeter): 30.18 in. Hg (1022 hPa)
ob: LIBF 061450Z 11002KT 6000 SCT020 13/12 Q1022
cycle: 15

Station Type Date Time Source
LIBF TAF 2015/04/03 06:00 UTC NOAA

TAF LIBF 030500Z 0306/0406 35014KT 9999 FEW030

Example: see airport list